CFG44SW EGCC-LTAC
Flight info
| Callsign | CFG44SW |
|---|---|
| Flight time | N/A |
| Altitude | 31000 |
| Route | SONEX L975 DESIG L603 LAMSO DCT HMM/N0454F330 DCT WRB DCT KATCE DCT VEXIL DCT PEPIK DCT UVERA DCT BUDOP DCT ARTAT UP975 ERGUN/N0461F340 UW71 ILHAN |
| Aircraft | A321/M-SDE3FGHIRWY/LB1 |
Departure
| Time | 2026-05-04 10:06 |
|---|---|
| Airport | Manchester Airport (EGCC) |
Arrival
| Time | N/A |
|---|---|
| Airport | Esenboğa International Airport (LTAC) |
| Time | Latitude | Longitude | Altitude | Speed | Heading |
|---|---|---|---|---|---|
| 2026-05-04 09:31 | 53.35937 | -2.27396 | 235 ft | 0 kts | 276° |
| 2026-05-04 09:54 | 53.35937 | -2.27395 | 233 ft | 1 kts | 276° |
| 2026-05-04 09:54 | 53.35937 | -2.27357 | 234 ft | 4 kts | 248° |
| 2026-05-04 09:54 | 53.35952 | -2.27325 | 235 ft | 4 kts | 200° |
| 2026-05-04 09:55 | 53.35971 | -2.27319 | 236 ft | 0 kts | 179° |
| 2026-05-04 09:58 | 53.35949 | -2.27318 | 236 ft | 8 kts | 179° |
| 2026-05-04 10:00 | 53.35559 | -2.27757 | 233 ft | 19 kts | 224° |
| 2026-05-04 10:00 | 53.35464 | -2.27908 | 233 ft | 18 kts | 224° |
| 2026-05-04 10:02 | 53.34767 | -2.29191 | 233 ft | 21 kts | 232° |
| 2026-05-04 10:04 | 53.34549 | -2.29208 | 235 ft | 9 kts | 63° |
| 2026-05-04 10:04 | 53.34573 | -2.29155 | 233 ft | 0 kts | 51° |
| 2026-05-04 10:05 | 53.34585 | -2.29130 | 233 ft | 20 kts | 51° |
| 2026-05-04 10:05 | 53.34839 | -2.28601 | 236 ft | 93 kts | 51° |
| 2026-05-04 10:05 | 53.35373 | -2.27497 | 238 ft | 148 kts | 51° |
| 2026-05-04 10:05 | 53.36098 | -2.25992 | 494 ft | 170 kts | 51° |
| 2026-05-04 10:06 | 53.36839 | -2.24473 | 1263 ft | 168 kts | 52° |
| 2026-05-04 10:06 | 53.37592 | -2.22899 | 1613 ft | 182 kts | 52° |
| 2026-05-04 10:06 | 53.38425 | -2.21123 | 1691 ft | 205 kts | 52° |
| 2026-05-04 10:08 | 53.44742 | -2.07676 | 4731 ft | 260 kts | 51° |
| 2026-05-04 10:08 | 53.45869 | -2.05281 | 5381 ft | 264 kts | 51° |
| 2026-05-04 10:08 | 53.47014 | -2.02842 | 5975 ft | 268 kts | 51° |
| 2026-05-04 10:08 | 53.48176 | -2.00358 | 6599 ft | 272 kts | 52° |
| 2026-05-04 10:09 | 53.49358 | -1.97844 | 7176 ft | 276 kts | 51° |
| 2026-05-04 10:09 | 53.50561 | -1.95305 | 7759 ft | 279 kts | 51° |
| 2026-05-04 10:09 | 53.51587 | -1.92510 | 8323 ft | 284 kts | 67° |
| 2026-05-04 10:09 | 53.52108 | -1.89296 | 8873 ft | 289 kts | 84° |
| 2026-05-04 10:10 | 53.52074 | -1.85914 | 9467 ft | 292 kts | 100° |
| 2026-05-04 10:10 | 53.51561 | -1.82647 | 10057 ft | 295 kts | 107° |
| 2026-05-04 10:10 | 53.50962 | -1.79290 | 10341 ft | 309 kts | 107° |
| 2026-05-04 10:10 | 53.50334 | -1.75736 | 10474 ft | 327 kts | 107° |
| 2026-05-04 10:11 | 53.49672 | -1.71978 | 10600 ft | 344 kts | 107° |
| 2026-05-04 10:11 | 53.48975 | -1.68025 | 10724 ft | 361 kts | 107° |
| 2026-05-04 10:11 | 53.48244 | -1.63895 | 10839 ft | 377 kts | 107° |
| 2026-05-04 10:11 | 53.47480 | -1.59595 | 10986 ft | 391 kts | 107° |
| 2026-05-04 10:12 | 53.46697 | -1.55178 | 11354 ft | 397 kts | 107° |
| 2026-05-04 10:12 | 53.45907 | -1.50719 | 11804 ft | 401 kts | 107° |
| 2026-05-04 10:12 | 53.45104 | -1.46216 | 12266 ft | 404 kts | 107° |
| 2026-05-04 10:12 | 53.44291 | -1.41696 | 12737 ft | 406 kts | 107° |
| 2026-05-04 10:13 | 53.43467 | -1.37145 | 13205 ft | 409 kts | 107° |
| 2026-05-04 10:13 | 53.42636 | -1.32559 | 13675 ft | 411 kts | 107° |
| 2026-05-04 10:13 | 53.41800 | -1.27960 | 14094 ft | 414 kts | 107° |
| 2026-05-04 10:13 | 53.40955 | -1.23328 | 14489 ft | 417 kts | 107° |
| 2026-05-04 10:14 | 53.40109 | -1.18678 | 14903 ft | 418 kts | 107° |
| 2026-05-04 10:14 | 53.39256 | -1.13998 | 15317 ft | 420 kts | 107° |
| 2026-05-04 10:16 | 53.33122 | -0.80669 | 18074 ft | 437 kts | 108° |
| 2026-05-04 10:16 | 53.32215 | -0.75810 | 18431 ft | 439 kts | 108° |
| 2026-05-04 10:16 | 53.31598 | -0.72510 | 18674 ft | 440 kts | 108° |
| 2026-05-04 10:16 | 53.30383 | -0.66018 | 19151 ft | 443 kts | 108° |
| 2026-05-04 10:17 | 53.29463 | -0.61099 | 19487 ft | 444 kts | 108° |
| 2026-05-04 10:17 | 53.28537 | -0.56166 | 19804 ft | 447 kts | 108° |
| 2026-05-04 10:19 | 53.22196 | -0.22838 | 21988 ft | 458 kts | 109° |
| 2026-05-04 10:19 | 53.21224 | -0.17765 | 22310 ft | 460 kts | 108° |
| 2026-05-04 10:19 | 53.20249 | -0.12684 | 22632 ft | 461 kts | 109° |
| 2026-05-04 10:19 | 53.19265 | -0.07581 | 22937 ft | 462 kts | 109° |
| 2026-05-04 10:20 | 53.18278 | -0.02476 | 23236 ft | 464 kts | 108° |
| 2026-05-04 10:20 | 53.17279 | 0.02662 | 23515 ft | 467 kts | 109° |
| 2026-05-04 10:20 | 53.16275 | 0.07825 | 23745 ft | 470 kts | 109° |
| 2026-05-04 10:20 | 53.15266 | 0.13017 | 23986 ft | 472 kts | 109° |
| 2026-05-04 10:21 | 53.14263 | 0.18156 | 24260 ft | 472 kts | 109° |
| 2026-05-04 10:21 | 53.13246 | 0.23337 | 24650 ft | 470 kts | 109° |
| 2026-05-04 10:21 | 53.12228 | 0.28502 | 24998 ft | 469 kts | 109° |
| 2026-05-04 10:21 | 53.11207 | 0.33657 | 25351 ft | 468 kts | 110° |
| 2026-05-04 10:22 | 53.09175 | 0.43907 | 26090 ft | 465 kts | 109° |
| 2026-05-04 10:22 | 53.08161 | 0.49009 | 26439 ft | 464 kts | 108° |
| 2026-05-04 10:22 | 53.07149 | 0.54109 | 26765 ft | 464 kts | 109° |
| 2026-05-04 10:23 | 53.06133 | 0.59202 | 27006 ft | 465 kts | 109° |
| 2026-05-04 10:23 | 53.05111 | 0.64310 | 27285 ft | 465 kts | 110° |
| 2026-05-04 10:25 | 52.97952 | 0.99833 | 29321 ft | 466 kts | 106° |
| 2026-05-04 10:25 | 52.97282 | 1.05107 | 29526 ft | 468 kts | 103° |
| 2026-05-04 10:25 | 52.96678 | 1.10435 | 29697 ft | 471 kts | 103° |
| 2026-05-04 10:25 | 52.96065 | 1.15778 | 29920 ft | 472 kts | 103° |
| 2026-05-04 10:26 | 52.95445 | 1.21125 | 30189 ft | 472 kts | 103° |
| 2026-05-04 10:26 | 52.94830 | 1.26399 | 30437 ft | 471 kts | 103° |
| 2026-05-04 10:26 | 52.94205 | 1.31711 | 30711 ft | 470 kts | 103° |
| 2026-05-04 10:26 | 52.93578 | 1.37018 | 30970 ft | 469 kts | 103° |
| 2026-05-04 10:27 | 52.92951 | 1.42329 | 31047 ft | 470 kts | 103° |
| 2026-05-04 10:27 | 52.91690 | 1.52981 | 31040 ft | 472 kts | 104° |
| 2026-05-04 10:28 | 52.90407 | 1.63731 | 31046 ft | 477 kts | 104° |
| 2026-05-04 10:28 | 52.89111 | 1.74531 | 31046 ft | 478 kts | 104° |
| 2026-05-04 10:29 | 52.87802 | 1.85313 | 31043 ft | 478 kts | 104° |
| 2026-05-04 10:29 | 52.86475 | 1.96092 | 31041 ft | 478 kts | 104° |
| 2026-05-04 10:30 | 52.85148 | 2.06859 | 31013 ft | 478 kts | 105° |
| 2026-05-04 10:30 | 52.83825 | 2.17570 | 31011 ft | 480 kts | 105° |
| 2026-05-04 10:31 | 52.82466 | 2.28438 | 31012 ft | 481 kts | 105° |
| 2026-05-04 10:32 | 52.77617 | 2.66391 | 31003 ft | 484 kts | 107° |
| 2026-05-04 10:33 | 52.76208 | 2.77262 | 31009 ft | 484 kts | 107° |
| 2026-05-04 10:33 | 52.74789 | 2.88130 | 31008 ft | 484 kts | 107° |
| 2026-05-04 10:34 | 52.73356 | 2.98912 | 31016 ft | 484 kts | 108° |
| 2026-05-04 10:34 | 52.71733 | 3.09665 | 30992 ft | 482 kts | 110° |
| 2026-05-04 10:35 | 52.69932 | 3.20294 | 31014 ft | 481 kts | 111° |
| 2026-05-04 10:35 | 52.68118 | 3.30894 | 31019 ft | 480 kts | 110° |
| 2026-05-04 10:36 | 52.66342 | 3.41496 | 31017 ft | 480 kts | 110° |
| 2026-05-04 10:36 | 52.64585 | 3.52085 | 30999 ft | 480 kts | 110° |
| 2026-05-04 10:37 | 52.62825 | 3.62673 | 30999 ft | 480 kts | 111° |
| 2026-05-04 10:37 | 52.61033 | 3.73254 | 31000 ft | 480 kts | 111° |
| 2026-05-04 10:39 | 52.54703 | 4.10108 | 30996 ft | 480 kts | 111° |
| 2026-05-04 10:40 | 52.52871 | 4.20667 | 30992 ft | 481 kts | 111° |
| 2026-05-04 10:40 | 52.51019 | 4.31236 | 30993 ft | 481 kts | 111° |
| 2026-05-04 10:41 | 52.49168 | 4.41778 | 30990 ft | 480 kts | 111° |
| 2026-05-04 10:41 | 52.47316 | 4.52287 | 30982 ft | 480 kts | 111° |
| 2026-05-04 10:42 | 52.45448 | 4.62802 | 30974 ft | 480 kts | 111° |
| 2026-05-04 10:42 | 52.43561 | 4.73303 | 30983 ft | 480 kts | 111° |
| 2026-05-04 10:43 | 52.41666 | 4.83812 | 30977 ft | 480 kts | 111° |
| 2026-05-04 10:45 | 52.34054 | 5.25526 | 30982 ft | 479 kts | 112° |
| 2026-05-04 10:45 | 52.32117 | 5.35998 | 30984 ft | 479 kts | 112° |
| 2026-05-04 10:46 | 52.30179 | 5.46413 | 30974 ft | 480 kts | 112° |
| 2026-05-04 10:46 | 52.28220 | 5.56822 | 30973 ft | 479 kts | 112° |
| 2026-05-04 10:47 | 52.26263 | 5.67218 | 30966 ft | 479 kts | 112° |
| 2026-05-04 10:47 | 52.24299 | 5.77608 | 30975 ft | 479 kts | 112° |
| 2026-05-04 10:49 | 52.16321 | 6.19087 | 30977 ft | 481 kts | 112° |
| 2026-05-04 10:50 | 52.14301 | 6.29454 | 30977 ft | 481 kts | 112° |
| 2026-05-04 10:52 | 52.06132 | 6.70866 | 30966 ft | 480 kts | 113° |
| 2026-05-04 10:52 | 52.04071 | 6.81193 | 30971 ft | 480 kts | 113° |
| 2026-05-04 10:54 | 51.95702 | 7.22511 | 30962 ft | 483 kts | 113° |
| 2026-05-04 10:56 | 51.87175 | 7.63702 | 30962 ft | 483 kts | 113° |
| 2026-05-04 10:57 | 51.84999 | 7.73974 | 30964 ft | 482 kts | 115° |
| 2026-05-04 10:57 | 51.82590 | 7.84069 | 30964 ft | 481 kts | 117° |
| 2026-05-04 10:58 | 51.80047 | 7.94063 | 30961 ft | 480 kts | 117° |
| 2026-05-04 10:58 | 51.77533 | 8.04063 | 30962 ft | 481 kts | 117° |
| 2026-05-04 10:59 | 51.75067 | 8.14099 | 30951 ft | 481 kts | 116° |
| 2026-05-04 10:59 | 51.72606 | 8.24143 | 30964 ft | 481 kts | 117° |
| 2026-05-04 11:00 | 51.70123 | 8.34155 | 30950 ft | 481 kts | 117° |
| 2026-05-04 11:02 | 51.60066 | 8.74015 | 30977 ft | 480 kts | 117° |
| 2026-05-04 11:05 | 51.43276 | 9.47709 | 30983 ft | 482 kts | 112° |
| 2026-05-04 11:06 | 51.41180 | 9.57896 | 30965 ft | 481 kts | 112° |
| 2026-05-04 11:06 | 51.39071 | 9.68085 | 30958 ft | 482 kts | 112° |
| 2026-05-04 11:10 | 51.23746 | 10.38866 | 31471 ft | 476 kts | 125° |
| 2026-05-04 11:12 | 51.12223 | 10.70657 | 33020 ft | 473 kts | 124° |
| 2026-05-04 11:12 | 51.10572 | 10.75182 | 33020 ft | 472 kts | 125° |
| 2026-05-04 11:12 | 51.07270 | 10.84200 | 33027 ft | 472 kts | 125° |
| 2026-05-04 11:13 | 51.03965 | 10.93189 | 33009 ft | 470 kts | 125° |
| 2026-05-04 11:13 | 51.00684 | 11.02098 | 33030 ft | 470 kts | 124° |
| 2026-05-04 11:14 | 50.97367 | 11.11066 | 33026 ft | 470 kts | 125° |
| 2026-05-04 11:16 | 50.84058 | 11.46717 | 32991 ft | 470 kts | 125° |
| 2026-05-04 11:16 | 50.80712 | 11.55600 | 32994 ft | 470 kts | 125° |
| 2026-05-04 11:17 | 50.77357 | 11.64477 | 32989 ft | 470 kts | 125° |
| 2026-05-04 11:19 | 50.63926 | 11.99754 | 32989 ft | 469 kts | 125° |
| 2026-05-04 11:19 | 50.60554 | 12.08533 | 32994 ft | 468 kts | 125° |
| 2026-05-04 11:20 | 50.57171 | 12.17303 | 32989 ft | 468 kts | 124° |
| 2026-05-04 11:20 | 50.53783 | 12.26050 | 32991 ft | 468 kts | 125° |
| 2026-05-04 11:22 | 50.40185 | 12.60915 | 32983 ft | 468 kts | 124° |
| 2026-05-04 11:23 | 50.36884 | 12.69740 | 32993 ft | 470 kts | 121° |
| 2026-05-04 11:25 | 50.26462 | 13.01693 | 33009 ft | 471 kts | 121° |
| 2026-05-04 11:25 | 50.23398 | 13.10662 | 33008 ft | 471 kts | 121° |
| 2026-05-04 11:27 | 50.09556 | 13.51305 | 32986 ft | 471 kts | 121° |
| 2026-05-04 11:28 | 50.06456 | 13.60305 | 32974 ft | 471 kts | 121° |
| 2026-05-04 11:28 | 50.03375 | 13.69238 | 32981 ft | 471 kts | 121° |
| 2026-05-04 11:29 | 50.00262 | 13.78221 | 32984 ft | 471 kts | 121° |
| 2026-05-04 11:29 | 49.97145 | 13.87179 | 32976 ft | 471 kts | 121° |
| 2026-05-04 11:33 | 49.75141 | 14.49623 | 33001 ft | 472 kts | 121° |
| 2026-05-04 11:33 | 49.71968 | 14.58509 | 32983 ft | 472 kts | 121° |
| 2026-05-04 11:34 | 49.68788 | 14.67364 | 32984 ft | 472 kts | 121° |
| 2026-05-04 11:34 | 49.65596 | 14.76229 | 32984 ft | 472 kts | 121° |
| 2026-05-04 11:35 | 49.62428 | 14.85020 | 32989 ft | 472 kts | 121° |
| 2026-05-04 11:35 | 49.59232 | 14.93857 | 32991 ft | 472 kts | 121° |
| 2026-05-04 11:36 | 49.56020 | 15.02695 | 32990 ft | 472 kts | 121° |
| 2026-05-04 11:36 | 49.52803 | 15.11512 | 32994 ft | 472 kts | 121° |
| 2026-05-04 11:37 | 49.49577 | 15.20307 | 32995 ft | 472 kts | 121° |
| 2026-05-04 11:37 | 49.46349 | 15.29091 | 32996 ft | 472 kts | 121° |
| 2026-05-04 11:38 | 49.43117 | 15.37872 | 32998 ft | 471 kts | 121° |
| 2026-05-04 11:38 | 49.39879 | 15.46638 | 33006 ft | 471 kts | 121° |
| 2026-05-04 11:39 | 49.36643 | 15.55367 | 32995 ft | 470 kts | 121° |
| 2026-05-04 11:41 | 49.25282 | 15.85764 | 33016 ft | 469 kts | 121° |
| 2026-05-04 11:41 | 49.22033 | 15.94415 | 33014 ft | 468 kts | 121° |
| 2026-05-04 11:42 | 49.18774 | 16.03033 | 33049 ft | 468 kts | 121° |
| 2026-05-04 11:42 | 49.15509 | 16.11635 | 33046 ft | 468 kts | 121° |
| 2026-05-04 11:43 | 49.12258 | 16.20176 | 33053 ft | 467 kts | 121° |
| 2026-05-04 11:43 | 49.08988 | 16.28741 | 33046 ft | 467 kts | 121° |
| 2026-05-04 11:44 | 49.05716 | 16.37293 | 33035 ft | 467 kts | 121° |
| 2026-05-04 11:44 | 49.02438 | 16.45837 | 33015 ft | 466 kts | 121° |
| 2026-05-04 11:45 | 48.99157 | 16.54344 | 33004 ft | 466 kts | 121° |
| 2026-05-04 11:45 | 48.95863 | 16.62858 | 33006 ft | 467 kts | 121° |
| 2026-05-04 11:46 | 48.92566 | 16.71371 | 33007 ft | 467 kts | 121° |
| 2026-05-04 11:46 | 48.89278 | 16.79830 | 33013 ft | 467 kts | 121° |
| 2026-05-04 11:47 | 48.85967 | 16.88328 | 33004 ft | 468 kts | 122° |
| 2026-05-04 11:47 | 48.82639 | 16.96819 | 33004 ft | 468 kts | 121° |
| 2026-05-04 11:48 | 48.79289 | 17.05319 | 33017 ft | 470 kts | 122° |
| 2026-05-04 11:48 | 48.75823 | 17.13728 | 33025 ft | 470 kts | 124° |
| 2026-05-04 11:49 | 48.72142 | 17.21908 | 33021 ft | 471 kts | 125° |
| 2026-05-04 11:49 | 48.68409 | 17.30046 | 33050 ft | 470 kts | 125° |
| 2026-05-04 11:50 | 48.64724 | 17.38219 | 33038 ft | 471 kts | 125° |
| 2026-05-04 11:50 | 48.61050 | 17.46419 | 33037 ft | 470 kts | 125° |
| 2026-05-04 11:51 | 48.57377 | 17.54590 | 33038 ft | 470 kts | 124° |
| 2026-05-04 11:51 | 48.53713 | 17.62708 | 33044 ft | 471 kts | 125° |
| 2026-05-04 11:52 | 48.50016 | 17.70847 | 33049 ft | 470 kts | 125° |
| 2026-05-04 11:52 | 48.46315 | 17.78987 | 33047 ft | 471 kts | 124° |
| 2026-05-04 11:53 | 48.42604 | 17.87125 | 33065 ft | 470 kts | 125° |
| 2026-05-04 11:53 | 48.38889 | 17.95236 | 33063 ft | 471 kts | 124° |
| 2026-05-04 11:55 | 48.24642 | 18.26127 | 33068 ft | 470 kts | 124° |
| 2026-05-04 11:56 | 48.20902 | 18.34184 | 33068 ft | 470 kts | 124° |
| 2026-05-04 11:56 | 48.17148 | 18.42233 | 33073 ft | 470 kts | 124° |
| 2026-05-04 11:57 | 48.13400 | 18.50260 | 33071 ft | 470 kts | 124° |
| 2026-05-04 11:57 | 48.09644 | 18.58278 | 33069 ft | 470 kts | 124° |
| 2026-05-04 11:58 | 48.05890 | 18.66277 | 33082 ft | 470 kts | 124° |
| 2026-05-04 11:58 | 48.02126 | 18.74259 | 33081 ft | 470 kts | 124° |
| 2026-05-04 11:59 | 47.98357 | 18.82230 | 33084 ft | 469 kts | 124° |
| 2026-05-04 11:59 | 47.94612 | 18.90126 | 33073 ft | 469 kts | 124° |
| 2026-05-04 12:00 | 47.90834 | 18.98070 | 33081 ft | 469 kts | 124° |
| 2026-05-04 12:00 | 47.87054 | 19.06012 | 33081 ft | 470 kts | 124° |
| 2026-05-04 12:01 | 47.83260 | 19.13948 | 33084 ft | 470 kts | 124° |
| 2026-05-04 12:02 | 47.69956 | 19.41597 | 33100 ft | 469 kts | 124° |
| 2026-05-04 12:03 | 47.66147 | 19.49461 | 33101 ft | 469 kts | 124° |
| 2026-05-04 12:03 | 47.62334 | 19.57306 | 33099 ft | 468 kts | 124° |
| 2026-05-04 12:04 | 47.58520 | 19.65125 | 33105 ft | 468 kts | 124° |
| 2026-05-04 12:04 | 47.54729 | 19.72891 | 33101 ft | 468 kts | 124° |
| 2026-05-04 12:05 | 47.50903 | 19.80697 | 33101 ft | 468 kts | 124° |
| 2026-05-04 12:05 | 47.47075 | 19.88485 | 33101 ft | 468 kts | 124° |
| 2026-05-04 12:06 | 47.43245 | 19.96269 | 33115 ft | 468 kts | 124° |
| 2026-05-04 12:06 | 47.39409 | 20.04040 | 33112 ft | 468 kts | 124° |
| 2026-05-04 12:07 | 47.35564 | 20.11794 | 33107 ft | 468 kts | 124° |
| 2026-05-04 12:07 | 47.31718 | 20.19531 | 33105 ft | 468 kts | 124° |
| 2026-05-04 12:08 | 47.27868 | 20.27259 | 33101 ft | 468 kts | 124° |
| 2026-05-04 12:08 | 47.24005 | 20.34973 | 33107 ft | 468 kts | 124° |
| 2026-05-04 12:09 | 47.20140 | 20.42676 | 33103 ft | 468 kts | 124° |
| 2026-05-04 12:09 | 47.16365 | 20.50446 | 33103 ft | 467 kts | 122° |
| 2026-05-04 12:10 | 47.12694 | 20.58322 | 33107 ft | 467 kts | 122° |
| 2026-05-04 12:10 | 47.09021 | 20.66191 | 33115 ft | 467 kts | 122° |
| 2026-05-04 12:11 | 47.05324 | 20.73968 | 33113 ft | 467 kts | 123° |
| 2026-05-04 12:11 | 47.01589 | 20.81771 | 33113 ft | 467 kts | 123° |
| 2026-05-04 12:12 | 46.97852 | 20.89565 | 33114 ft | 467 kts | 123° |
| 2026-05-04 12:12 | 46.94118 | 20.97353 | 33131 ft | 467 kts | 122° |
| 2026-05-04 12:14 | 46.79148 | 21.28337 | 33129 ft | 466 kts | 123° |
| 2026-05-04 12:15 | 46.75424 | 21.35993 | 33115 ft | 466 kts | 123° |
| 2026-05-04 12:15 | 46.71675 | 21.43681 | 33126 ft | 465 kts | 123° |
| 2026-05-04 12:16 | 46.67925 | 21.51379 | 33118 ft | 465 kts | 122° |
| 2026-05-04 12:16 | 46.64294 | 21.59173 | 33133 ft | 464 kts | 121° |
| 2026-05-04 12:17 | 46.60731 | 21.67007 | 33123 ft | 464 kts | 121° |
| 2026-05-04 12:17 | 46.57147 | 21.74812 | 33126 ft | 464 kts | 121° |
| 2026-05-04 12:18 | 46.53561 | 21.82524 | 33124 ft | 464 kts | 121° |
| 2026-05-04 12:18 | 46.49942 | 21.90282 | 33129 ft | 463 kts | 121° |
| 2026-05-04 12:19 | 46.46326 | 21.98025 | 33131 ft | 463 kts | 121° |
| 2026-05-04 12:19 | 46.42711 | 22.05736 | 33124 ft | 462 kts | 121° |
| 2026-05-04 12:20 | 46.39102 | 22.13432 | 33120 ft | 462 kts | 121° |
| 2026-05-04 12:20 | 46.35485 | 22.21118 | 33146 ft | 461 kts | 121° |
| 2026-05-04 12:21 | 46.31864 | 22.28774 | 33133 ft | 460 kts | 121° |
| 2026-05-04 12:21 | 46.28251 | 22.36410 | 33131 ft | 460 kts | 121° |
| 2026-05-04 12:22 | 46.24631 | 22.44036 | 33116 ft | 460 kts | 121° |
| 2026-05-04 12:22 | 46.21004 | 22.51645 | 33126 ft | 459 kts | 122° |
| 2026-05-04 12:23 | 46.17383 | 22.59234 | 33120 ft | 458 kts | 122° |
| 2026-05-04 12:23 | 46.13763 | 22.66800 | 33108 ft | 458 kts | 122° |
| 2026-05-04 12:24 | 46.10159 | 22.74296 | 33103 ft | 458 kts | 122° |
| 2026-05-04 12:24 | 46.06535 | 22.81840 | 33114 ft | 457 kts | 122° |
| 2026-05-04 12:25 | 46.02914 | 22.89355 | 33121 ft | 456 kts | 122° |
| 2026-05-04 12:25 | 45.99287 | 22.96842 | 33113 ft | 456 kts | 122° |
| 2026-05-04 12:26 | 45.95664 | 23.04316 | 33103 ft | 455 kts | 122° |
| 2026-05-04 12:26 | 45.92039 | 23.11774 | 33112 ft | 455 kts | 122° |
| 2026-05-04 12:27 | 45.88409 | 23.19213 | 33107 ft | 455 kts | 123° |
| 2026-05-04 12:27 | 45.84773 | 23.26640 | 33104 ft | 454 kts | 123° |
| 2026-05-04 12:28 | 45.81162 | 23.34016 | 33106 ft | 454 kts | 123° |
| 2026-05-04 12:28 | 45.77522 | 23.41419 | 33121 ft | 454 kts | 123° |
| 2026-05-04 12:29 | 45.73884 | 23.48798 | 33121 ft | 453 kts | 123° |
| 2026-05-04 12:29 | 45.70252 | 23.56157 | 33108 ft | 452 kts | 123° |
| 2026-05-04 12:30 | 45.66618 | 23.63492 | 33101 ft | 451 kts | 123° |
| 2026-05-04 12:30 | 45.62986 | 23.70811 | 33103 ft | 451 kts | 121° |
| 2026-05-04 12:31 | 45.59348 | 23.78116 | 33096 ft | 451 kts | 123° |
| 2026-05-04 12:31 | 45.55700 | 23.85404 | 33094 ft | 451 kts | 123° |
| 2026-05-04 12:32 | 45.50228 | 23.96330 | 33087 ft | 451 kts | 124° |